Weather History for KRZL - April, 2013

Change the Weather History Date:

Sunday, April 28, 2013

  Actual Average (KVPZ) Record (KVPZ)
Temperature  
Mean Temperature 56 °F 54 °F  
Max Temperature 60 °F 65 °F 79 °F (2004)
Min Temperature 51 °F 43 °F 32 °F (2010)
Degree Days  
Heating Degree Days 10 12  
Month to date heating degree days 459  
Since 1 July heating degree days 6036  
Cooling Degree Days 0 0  
Month to date cooling degree days 0  
Year to date cooling degree days 0  
Growing Degree Days 6 (Base 50)    
Moisture  
Dew Point 53 °F    
Average Humidity 91    
Maximum Humidity 100    
Minimum Humidity 77    
Precipitation  
Precipitation 0.08 in 0.14 in 0.27 in (2008)
Month to date precipitation 3.19  
Year to date precipitation 8.84  
Sea Level Pressure  
Sea Level Pressure 29.89 in    
Wind  
Wind Speed 6 mph (NE)    
Max Wind Speed 10 mph    
Max Gust Speed -    
Visibility 7 miles    
Events Rain    
T = Trace of Precipitation, MM = Missing Value Source: NWS Daily Summary

Daily Weather History Graph

Daily Weather History Graph

Search for Another Location

Airport or City:

Trip Planner

Search our weather history database for the weather conditions in past years. The results will help you decide how hot, cold, wet, or windy it might be!

Date:

Astronomy

Apr. 28, 2013 Rise Set
Actual Time 5:50 AM CDT 7:42 PM CDT
Civil Twilight 5:20 AM CDT 8:12 PM CDT
Nautical Twilight 4:44 AM CDT 8:48 PM CDT
Astronomical Twilight 4:06 AM CDT 9:27 PM CDT
Moon 11:13 PM CDT (4/28) 8:05 AM CDT (4/28)
Length of Visible Light 14h 51m
Length of Day
13h 52m
Waning Gibbous, 88% of the Moon is Illuminated
Apr 28
Waning Gibbous
May 2
Last Quarter
May 9
New
May 17
First Quarter
May 24
Full

Hourly Weather History & Observations

Time (CDT) Temp. Dew Point Humidity Pressure Visibility Wind Dir Wind Speed Gust Speed Precip Events Conditions
12:15 AM 53.6 °F 51.8 °F 94% 30.00 in 5.0 mi ENE 4.6 mph - 0.01 in   Drizzle
12:35 AM 53.6 °F 51.8 °F 94% 29.99 in 5.0 mi ENE 8.1 mph - 0.01 in   Light Drizzle
12:55 AM 53.6 °F 51.8 °F 94% 29.99 in 4.0 mi ENE 6.9 mph - 0.02 in   Drizzle
1:15 AM 53.6 °F 51.8 °F 94% 29.97 in 3.0 mi ENE 8.1 mph - 0.01 in   Drizzle
1:35 AM 53.6 °F 51.8 °F 94% 29.96 in 2.5 mi ENE 8.1 mph - 0.02 in Rain Rain
1:55 AM 53.6 °F 51.8 °F 94% 29.95 in 3.0 mi ENE 8.1 mph - 0.03 in   Drizzle
2:15 AM 51.8 °F 51.8 °F 100% 29.94 in 2.5 mi ENE 9.2 mph - 0.01 in   Drizzle
2:35 AM 51.8 °F 51.8 °F 100% 29.93 in 2.5 mi ENE 9.2 mph - 0.02 in   Drizzle
2:55 AM 51.8 °F 51.8 °F 100% 29.93 in 2.5 mi ENE 9.2 mph - 0.02 in Rain Rain
3:15 AM 51.8 °F 51.8 °F 100% 29.92 in 3.0 mi ENE 6.9 mph - N/A   Light Drizzle
3:35 AM 51.8 °F 51.8 °F 100% 29.92 in 3.0 mi ENE 10.4 mph - N/A Rain Light Rain
3:55 AM 51.8 °F 51.8 °F 100% 29.91 in 3.0 mi ENE 6.9 mph - N/A Rain Light Rain
4:15 AM 51.8 °F 51.8 °F 100% 29.91 in 2.5 mi ENE 9.2 mph - 0.01 in Rain Rain
4:35 AM 51.8 °F 51.8 °F 100% 29.90 in 4.0 mi ENE 10.4 mph - 0.01 in   Mist
4:55 AM 51.8 °F 51.8 °F 100% 29.90 in 5.0 mi ENE 9.2 mph - 0.01 in   Mist
5:15 AM 51.8 °F 51.8 °F 100% 29.90 in 5.0 mi ENE 9.2 mph - N/A   Mist
5:35 AM 51.8 °F 51.8 °F 100% 29.90 in 7.0 mi ENE 8.1 mph - N/A   Unknown
5:55 AM 51.8 °F 51.8 °F 100% 29.90 in 5.0 mi ENE 8.1 mph - N/A   Mist
6:15 AM 51.8 °F 51.8 °F 100% 29.89 in 4.0 mi ENE 6.9 mph - N/A   Mist
6:35 AM 51.8 °F 51.8 °F 100% 29.90 in 3.0 mi ENE 8.1 mph - N/A   Mist
6:55 AM 51.8 °F 51.8 °F 100% 29.90 in 4.0 mi NE 5.8 mph - N/A   Mist
7:15 AM 51.8 °F 51.8 °F 100% 29.90 in 4.0 mi NE 6.9 mph - N/A   Mist
7:35 AM 53.6 °F 51.8 °F 94% 29.89 in 4.0 mi ENE 8.1 mph - N/A   Mist
7:55 AM 53.6 °F 51.8 °F 94% 29.89 in 4.0 mi ENE 5.8 mph - N/A   Light Drizzle
8:15 AM 53.6 °F 51.8 °F 94% 29.89 in 4.0 mi ENE 6.9 mph - N/A   Mist
8:35 AM 53.6 °F 53.6 °F 100% 29.89 in 4.0 mi ENE 8.1 mph - N/A   Mist
8:55 AM 53.6 °F 53.6 °F 100% 29.88 in 5.0 mi ENE 8.1 mph - N/A   Mist
9:15 AM 53.6 °F 53.6 °F 100% 29.88 in 5.0 mi ENE 6.9 mph - N/A   Mist
9:35 AM 55.4 °F 53.6 °F 94% 29.88 in 7.0 mi NE 5.8 mph - N/A   Unknown
9:55 AM 55.4 °F 53.6 °F 94% 29.87 in 7.0 mi ENE 6.9 mph - N/A   Unknown
10:15 AM 55.4 °F 53.6 °F 94% 29.87 in 10.0 mi NE 4.6 mph - N/A   Unknown
10:35 AM 55.4 °F 53.6 °F 94% 29.87 in 10.0 mi NNE 4.6 mph - N/A   Unknown
10:55 AM 57.2 °F 53.6 °F 88% 29.87 in 10.0 mi Calm Calm - N/A   Unknown
11:15 AM 57.2 °F 53.6 °F 88% 29.88 in 10.0 mi Calm Calm - N/A   Unknown
11:35 AM 57.2 °F 53.6 °F 88% 29.88 in 10.0 mi Calm Calm - N/A   Unknown
11:55 AM 59.0 °F 53.6 °F 82% 29.87 in 10.0 mi Calm Calm - N/A   Unknown
12:15 PM 59.0 °F 53.6 °F 82% 29.87 in 10.0 mi Calm Calm - N/A   Unknown
12:35 PM 59.0 °F 53.6 °F 82% 29.86 in 10.0 mi NW 6.9 mph - N/A   Unknown
12:55 PM 57.2 °F 53.6 °F 88% 29.87 in 10.0 mi NW 6.9 mph - N/A   Unknown
1:15 PM 57.2 °F 53.6 °F 88% 29.87 in 7.0 mi NW 4.6 mph - N/A   Unknown
1:35 PM 57.2 °F 53.6 °F 88% 29.86 in 7.0 mi NW 4.6 mph - N/A   Unknown
1:55 PM 59.0 °F 53.6 °F 82% 29.87 in 7.0 mi NW 4.6 mph - N/A   Unknown
2:15 PM 59.0 °F 53.6 °F 82% 29.86 in 10.0 mi NW 4.6 mph - N/A   Unknown
2:35 PM 59.0 °F 53.6 °F 82% 29.86 in 10.0 mi NNW 3.5 mph - N/A   Unknown
2:55 PM 59.0 °F 53.6 °F 82% 29.86 in 10.0 mi NNW 3.5 mph - N/A   Unknown
3:15 PM 59.0 °F 53.6 °F 82% 29.85 in 10.0 mi NW 4.6 mph - N/A   Unknown
3:55 PM 60.8 °F 53.6 °F 77% 29.84 in 10.0 mi Calm Calm - N/A   Unknown
4:15 PM 59.0 °F 53.6 °F 82% 29.84 in 10.0 mi WNW 4.6 mph - N/A   Unknown
4:35 PM 60.8 °F 53.6 °F 77% 29.84 in 10.0 mi Calm Calm - N/A   Unknown
4:55 PM 60.8 °F 53.6 °F 77% 29.85 in 10.0 mi Calm Calm - N/A   Unknown
5:15 PM 60.8 °F 53.6 °F 77% 29.85 in 10.0 mi Calm Calm - N/A   Unknown
5:35 PM 60.8 °F 53.6 °F 77% 29.85 in 10.0 mi Calm Calm - N/A   Unknown
5:55 PM 60.8 °F 53.6 °F 77% 29.85 in 10.0 mi SW 4.6 mph - N/A   Unknown
6:15 PM 60.8 °F 53.6 °F 77% 29.85 in 10.0 mi SW 6.9 mph - N/A   Unknown
6:35 PM 59.0 °F 55.4 °F 88% 29.85 in 10.0 mi SW 5.8 mph - N/A   Unknown
6:55 PM 59.0 °F 53.6 °F 82% 29.85 in 10.0 mi WSW 5.8 mph - N/A   Unknown
7:15 PM 59.0 °F 53.6 °F 82% 29.86 in 10.0 mi WSW 5.8 mph - N/A   Unknown
7:35 PM 59.0 °F 53.6 °F 82% 29.86 in 10.0 mi WSW 4.6 mph - N/A   Unknown
7:55 PM 59.0 °F 53.6 °F 82% 29.86 in 10.0 mi WSW 5.8 mph - N/A   Unknown
8:15 PM 59.0 °F 53.6 °F 82% 29.86 in 10.0 mi SW 4.6 mph - N/A   Unknown
8:35 PM 57.2 °F 53.6 °F 88% 29.87 in 7.0 mi SW 3.5 mph - N/A   Unknown
8:55 PM 57.2 °F 53.6 °F 88% 29.87 in 7.0 mi SSW 4.6 mph - N/A   Unknown
9:15 PM 57.2 °F 53.6 °F 88% 29.87 in 7.0 mi SSW 4.6 mph - N/A   Unknown
9:35 PM 57.2 °F 55.4 °F 94% 29.87 in 7.0 mi SSW 4.6 mph - N/A   Unknown
9:55 PM 57.2 °F 53.6 °F 88% 29.88 in 7.0 mi SW 4.6 mph - N/A   Unknown
10:15 PM 57.2 °F 55.4 °F 94% 29.89 in 7.0 mi SSW 5.8 mph - N/A   Unknown
10:35 PM 55.4 °F 53.6 °F 94% 29.88 in 7.0 mi SW 4.6 mph - N/A   Unknown
10:55 PM 55.4 °F 53.6 °F 94% 29.88 in 7.0 mi SSW 4.6 mph - N/A   Unknown
11:15 PM 55.4 °F 53.6 °F 94% 29.89 in 5.0 mi SSW 6.9 mph - N/A   Mist
11:35 PM 55.4 °F 53.6 °F 94% 29.89 in 5.0 mi SW 6.9 mph - N/A   Mist
11:55 PM 55.4 °F 53.6 °F 94% 29.89 in 5.0 mi SSW 5.8 mph - N/A   Mist